ADDS METAR Data INFO
IDs: Format: Raw Decoded Include TAF

Data at: 2050 UTC 24 Jun 2018

KPYX 242035Z AUTO 13014KT 10SM CLR 25/17 A2987 RMK AO2 T02500173
KPYX 242015Z AUTO 12017G23KT 10SM CLR 25/17 A2988 RMK AO2 T02450166
KPYX 241955Z AUTO 13014G21KT 10SM CLR 25/17 A2989 RMK AO2 T02490172
KPYX 241935Z AUTO 12016G22KT 10SM CLR 25/17 A2989 RMK AO2 T02500171
KPYX 241915Z AUTO 11019G26KT 10SM CLR 25/17 A2990 RMK AO2 T02450166
KPYX 241855Z AUTO 12022KT 10SM SCT060 24/17 A2990 RMK AO2 T02430166
KPYX 241835Z AUTO 11020G27KT 10SM BKN060 23/16 A2991 RMK AO2 T02340160
KPYX 241815Z AUTO 11019G27KT 10SM BKN060 BKN080 23/17 A2991 RMK AO2 T02310165
KPYX 241755Z AUTO 12020G24KT 10SM SCT080 23/17 A2991 RMK AO2 60005 T02310173 10231 20174
KPYX 241735Z AUTO 11020G27KT 10SM BKN080 22/17 A2991 RMK AO2 T02210172
KPYX 241715Z AUTO 10023G31KT 10SM SCT012 SCT080 22/17 A2991 RMK AO2 T02160173
KPYX 241655Z AUTO 10028G34KT 10SM SCT010 SCT014 SCT080 21/17 A2990 RMK AO2 T02090171
KPYX 241635Z AUTO 09026G32KT 10SM SCT008 BKN080 21/17 A2991 RMK AO2 T02050171
KPYX 241615Z AUTO 09024G33KT 10SM SCT008 SCT044 SCT055 19/17 A2991 RMK AO2 T01930170
KPYX 241555Z AUTO 08027G32KT 10SM BKN044 OVC055 18/16 A2992 RMK AO2 P0001 T01810164
KPYX 241535Z AUTO 07024G30KT 10SM OVC042 18/16 A2994 RMK AO2 P0001 T01790164
KPYX 241515Z AUTO 07028G32KT 10SM SCT029 OVC036 18/16 A2993 RMK AO2 P0001 T01760160
KPYX 241455Z AUTO 05023G29KT 7SM SCT012 BKN029 OVC034 17/16 A2996 RMK AO2 P0004 60004 T01740155
KPYX 241435Z AUTO 02019G33KT 7SM OVC023 19/15 A2996 RMK AO2 T01860152
KPYX 241415Z AUTO 03021G26KT 10SM OVC023 19/17 A2993 RMK AO2 T01920165
KPYX 241355Z AUTO 01019G22KT 10SM OVC025 20/16 A2992 RMK AO2 T01990161
KPYX 241335Z AUTO 02012KT 10SM SCT025 BKN032 BKN055 21/17 A2990 RMK AO2 T02090167
KPYX 241315Z AUTO 10009KT 10SM CLR 21/17 A2984 RMK AO2 T02100170
KPYX 241255Z AUTO 13008KT 10SM CLR 20/17 A2980 RMK AO2 T02020170
KPYX 241235Z AUTO 15007KT 10SM CLR 19/17 A2976 RMK AO2 T01910166
KPYX 241215Z AUTO 15007KT 10SM CLR 19/16 A2975 RMK AO2 T01850160
KPYX 241155Z AUTO 17009KT 10SM CLR 19/16 A2976 RMK AO2 T01860155 10208 20182
KPYX 241135Z AUTO 13009KT 10SM CLR 19/16 A2977 RMK AO2 T01870155
KPYX 241115Z AUTO 11012KT 10SM CLR 19/16 A2977 RMK AO2 T01900155
KPYX 241055Z AUTO 14009KT 10SM CLR 19/16 A2978 RMK AO2 T01900155
KPYX 241035Z AUTO 11011KT 10SM CLR 19/16 A2977 RMK AO2 T01870155
KPYX 241015Z AUTO 12009KT 10SM CLR 19/16 A2979 RMK AO2 T01860156
KPYX 240955Z AUTO 10011KT 10SM CLR 18/16 A2979 RMK AO2 T01840157
KPYX 240935Z AUTO 10011KT 10SM CLR 19/16 A2980 RMK AO2 T01850158
KPYX 240915Z AUTO 10012G19KT 10SM CLR 19/16 A2981 RMK AO2 T01850160
KPYX 240855Z AUTO 10012KT 10SM SCT027 SCT043 19/16 A2981 RMK AO2 T01860159
KPYX 240835Z AUTO 10015G19KT 10SM SCT027 SCT041 19/16 A2982 RMK AO2 T01850159
KPYX 240815Z AUTO 08014G21KT 10SM CLR 18/16 A2982 RMK AO2 T01830159
KPYX 240755Z AUTO 07017KT 10SM SCT038 19/16 A2983 RMK AO2 T01850160
KPYX 240735Z AUTO 07011KT 10SM SCT021 SCT027 BKN036 19/16 A2983 RMK AO2 T01860163
KPYX 240715Z AUTO 07015G19KT 10SM OVC023 19/16 A2983 RMK AO2 T01850161
KPYX 240655Z AUTO 06014KT 10SM OVC025 19/16 A2981 RMK AO2 T01860159
KPYX 240635Z AUTO 07015KT 10SM BKN025 BKN031 19/16 A2982 RMK AO2 T01900157
KPYX 240615Z AUTO 07014KT 10SM SCT019 BKN029 OVC034 20/16 A2983 RMK AO2 T01970155
KPYX 240555Z AUTO 05024G29KT 10SM BKN019 BKN026 OVC033 21/16 A2987 RMK AO2 T02080156 10296 20208 402970183
KPYX 240535Z AUTO 02017G23KT 10SM SCT015 SCT022 OVC040 24/19 A2990 RMK AO2 T02350190
KPYX 240515Z AUTO 02012KT 10SM SCT040 24/21 A2990 RMK AO2 T02370205
KPYX 240455Z AUTO 12009KT 10SM CLR 24/20 A2982 RMK AO2 T02380203
KPYX 240435Z AUTO 13011KT 10SM CLR 24/20 A2980 RMK AO2 T02400203
KPYX 240415Z AUTO 12010KT 10SM CLR 24/20 A2979 RMK AO2 T02400203
KPYX 240355Z AUTO 12011KT 10SM CLR 24/20 A2979 RMK AO2 T02420202
KPYX 240335Z AUTO 12010KT 10SM CLR 24/20 A2979 RMK AO2 T02420202
KPYX 240315Z AUTO 11007KT 10SM CLR 25/20 A2981 RMK AO2 T02450202
KPYX 240255Z AUTO 12007KT 10SM CLR 25/20 A2980 RMK AO2 T02470202
KPYX 240235Z AUTO 13006KT 10SM CLR 25/20 A2980 RMK AO2 T02510201
KPYX 240215Z AUTO 14009KT 10SM CLR 26/20 A2979 RMK AO2 T02570201
KPYX 240155Z AUTO 14010KT 10SM CLR 26/20 A2979 RMK AO2 T02630198
KPYX 240135Z AUTO 13014KT 10SM CLR 27/20 A2977 RMK AO2 T02700198
KPYX 240115Z AUTO 14012KT 10SM CLR 28/20 A2979 RMK AO2 T02800197
KPYX 240055Z AUTO 14012G18KT 10SM CLR 29/19 A2979 RMK AO2 T02850194
KPYX 240035Z AUTO 14016G21KT 10SM CLR 29/19 A2979 RMK AO2 T02910192
KPYX 240015Z AUTO 16012KT 10SM CLR 29/20 A2979 RMK AO2 T02920195
KPYX 232355Z AUTO 16012KT 10SM CLR 30/19 A2979 RMK AO2 T02950192 10297 20252
KPYX 232335Z AUTO 16014G19KT 10SM SCT046 30/20 A2979 RMK AO2 T02960195
KPYX 232315Z AUTO 16013G16KT 10SM SCT044 30/20 A2981 RMK AO2 T02970196
KPYX 232255Z AUTO 14012KT 10SM SCT042 30/20 A2982 RMK AO2 T02950196
KPYX 232235Z AUTO 16013KT 10SM CLR 30/20 A2983 RMK AO2 T02950196
KPYX 232215Z AUTO 15011G19KT 10SM SCT040 SCT047 30/20 A2984 RMK AO2 T02970195
KPYX 232155Z AUTO 12010KT 10SM SCT040 SCT047 BKN085 29/20 A2984 RMK AO2 T02860198
KPYX 232135Z AUTO 15011G17KT 10SM OVC085 29/20 A2985 RMK AO2 T02880196
KPYX 232115Z AUTO 14008KT 10SM SCT042 OVC085 28/20 A2986 RMK AO2 T02820201
KPYX 232055Z AUTO 15007G15KT 10SM SCT034 SCT040 BKN085 28/20 A2986 RMK AO2 T02800195
KPYX 232035Z AUTO 15008KT 10SM SCT036 SCT050 SCT085 28/20 A2988 RMK AO2 T02800195
KPYX 232015Z AUTO 14008G16KT 10SM SCT080 28/20 A2988 RMK AO2 T02790195
KPYX 231955Z AUTO 15012G17KT 10SM SCT080 27/19 A2988 RMK AO2 T02730190
KPYX 231935Z AUTO 14013G16KT 10SM SCT037 SCT065 SCT085 27/19 A2989 RMK AO2 T02740191
KPYX 231915Z AUTO 12006KT 10SM BKN065 BKN085 27/18 A2990 RMK AO2 T02660180
KPYX 231855Z AUTO 15011G14KT 10SM SCT065 SCT075 27/18 A2990 RMK AO2 T02690179
KPYX 231835Z AUTO 13008KT 10SM CLR 27/17 A2990 RMK AO2 T02650173
KPYX 231815Z AUTO 12005KT 10SM CLR 26/18 A2991 RMK AO2 T02600176
KPYX 231755Z AUTO 11004KT 10SM CLR 25/17 A2991 RMK AO2 T02520174 10252 20183
KPYX 231735Z AUTO 15006KT 10SM CLR 25/18 A2992 RMK AO2 T02470179
KPYX 231715Z AUTO 14006KT 10SM SCT080 25/17 A2993 RMK AO2 T02450173
KPYX 231655Z AUTO 15003KT 10SM SCT080 SCT100 24/17 A2993 RMK AO2 T02380168
KPYX 231635Z AUTO 12003KT 10SM SCT065 BKN090 23/17 A2994 RMK AO2 T02340169
KPYX 231615Z AUTO 00000KT 10SM SCT065 SCT090 23/17 A2994 RMK AO2 T02310165
KPYX 231555Z AUTO 00000KT 10SM SCT090 23/17 A2994 RMK AO2 T02280165
KPYX 231535Z AUTO 00000KT 10SM BKN090 22/17 A2993 RMK AO2 T02210166
KPYX 231515Z AUTO 00000KT 10SM OVC080 21/17 A2993 RMK AO2 T02120169
KPYX 231455Z AUTO 36003KT 10SM OVC080 21/17 A2992 RMK AO2 T02060173
KPYX 231435Z AUTO 01005KT 10SM SCT080 21/18 A2993 RMK AO2 T02050175
KPYX 231415Z AUTO 36006KT 10SM SCT006 20/17 A2992 RMK AO2 T02010174
KPYX 231355Z AUTO 35007KT 10SM SCT006 20/17 A2992 RMK AO2 T01970173
KPYX 231335Z AUTO 36008KT 10SM SCT004 19/17 A2991 RMK AO2 T01940172
KPYX 231315Z AUTO 02008KT 7SM SCT004 19/17 A2992 RMK AO2 T01870172
KPYX 231255Z AUTO 01008KT 10SM CLR 19/17 A2992 RMK AO2 T01850171
KPYX 231235Z AUTO 09003KT 10SM CLR 19/17 A2989 RMK AO2 T01850170
KPYX 231215Z AUTO 02004KT 10SM SCT090 SCT110 19/17 A2990 RMK AO2 T01880171
KPYX 231155Z AUTO 34008KT 10SM OVC090 19/17 A2991 RMK AO2 70033 T01900170 10191 20185
KPYX 231135Z AUTO 34004KT 10SM OVC090 19/17 A2990 RMK AO2 T01900167
KPYX 231115Z AUTO 00000KT 10SM OVC090 19/17 A2988 RMK AO2 T01900170
KPYX 231055Z AUTO 10004KT 10SM OVC090 19/17 A2988 RMK AO2 T01900167
KPYX 231035Z AUTO 00000KT 10SM OVC090 19/17 A2988 RMK AO2 T01900167
KPYX 231015Z AUTO 00000KT 10SM OVC090 19/17 A2986 RMK AO2 T01900167
KPYX 230955Z AUTO 16005KT 10SM OVC090 19/17 A2986 RMK AO2 T01900165
KPYX 230935Z AUTO 00000KT 10SM OVC090 19/17 A2986 RMK AO2 T01900167
KPYX 230915Z AUTO 00000KT 10SM OVC100 19/17 A2984 RMK AO2 T01900165
KPYX 230855Z AUTO 04004KT 10SM OVC100 19/17 A2984 RMK AO2 T01900168